sensor_id;sensor_type;location;lat;lon;timestamp;temperature;humidity
8882;DHT22;4477;48.736;9.176;2022-08-21T00:01:30;11.70;99.90
8882;DHT22;4477;48.736;9.176;2022-08-21T00:03:57;11.70;99.90
8882;DHT22;4477;48.736;9.176;2022-08-21T00:06:24;11.70;99.90
8882;DHT22;4477;48.736;9.176;2022-08-21T00:08:51;11.60;99.90
8882;DHT22;4477;48.736;9.176;2022-08-21T00:11:18;11.60;99.90
8882;DHT22;4477;48.736;9.176;2022-08-21T00:13:47;11.60;99.90
8882;DHT22;4477;48.736;9.176;2022-08-21T00:16:13;11.60;99.90
8882;DHT22;4477;48.736;9.176;2022-08-21T00:18:40;11.60;99.90
8882;DHT22;4477;48.736;9.176;2022-08-21T00:21:07;11.60;99.90
8882;DHT22;4477;48.736;9.176;2022-08-21T00:23:34;11.50;99.90
8882;DHT22;4477;48.736;9.176;2022-08-21T00:26:02;11.60;99.90
8882;DHT22;4477;48.736;9.176;2022-08-21T00:28:29;11.60;99.90
8882;DHT22;4477;48.736;9.176;2022-08-21T00:31:01;11.60;99.90
8882;DHT22;4477;48.736;9.176;2022-08-21T00:33:30;11.60;99.90
8882;DHT22;4477;48.736;9.176;2022-08-21T00:35:57;11.60;99.90
8882;DHT22;4477;48.736;9.176;2022-08-21T00:38:24;11.60;99.90
8882;DHT22;4477;48.736;9.176;2022-08-21T00:40:53;11.60;99.90
8882;DHT22;4477;48.736;9.176;2022-08-21T00:43:23;11.60;99.90
8882;DHT22;4477;48.736;9.176;2022-08-21T00:45:51;11.60;99.90
8882;DHT22;4477;48.736;9.176;2022-08-21T00:48:20;11.60;99.90
8882;DHT22;4477;48.736;9.176;2022-08-21T00:50:52;11.60;99.90
8882;DHT22;4477;48.736;9.176;2022-08-21T00:53:19;11.60;99.90
8882;DHT22;4477;48.736;9.176;2022-08-21T00:55:46;11.60;99.90
8882;DHT22;4477;48.736;9.176;2022-08-21T00:58:14;11.50;99.90
8882;DHT22;4477;48.736;9.176;2022-08-21T01:00:45;11.50;99.90
8882;DHT22;4477;48.736;9.176;2022-08-21T01:03:16;11.60;99.90
8882;DHT22;4477;48.736;9.176;2022-08-21T01:05:45;11.60;99.90
8882;DHT22;4477;48.736;9.176;2022-08-21T01:08:14;11.60;99.90
8882;DHT22;4477;48.736;9.176;2022-08-21T01:10:43;11.50;99.90
8882;DHT22;4477;48.736;9.176;2022-08-21T01:13:16;11.50;99.90
8882;DHT22;4477;48.736;9.176;2022-08-21T01:15:47;11.40;99.90
8882;DHT22;4477;48.736;9.176;2022-08-21T01:18:16;11.30;99.90
8882;DHT22;4477;48.736;9.176;2022-08-21T01:20:58;11.20;99.90
8882;DHT22;4477;48.736;9.176;2022-08-21T01:23:25;11.10;99.90
8882;DHT22;4477;48.736;9.176;2022-08-21T01:25:52;11.20;99.90
8882;DHT22;4477;48.736;9.176;2022-08-21T01:28:19;11.20;99.90
8882;DHT22;4477;48.736;9.176;2022-08-21T01:30:48;11.20;99.90
8882;DHT22;4477;48.736;9.176;2022-08-21T01:33:17;11.20;99.90
8882;DHT22;4477;48.736;9.176;2022-08-21T01:35:44;11.10;99.90
8882;DHT22;4477;48.736;9.176;2022-08-21T01:38:13;11.00;99.90
8882;DHT22;4477;48.736;9.176;2022-08-21T01:40:40;11.00;99.90
8882;DHT22;4477;48.736;9.176;2022-08-21T01:43:06;11.10;99.90
8882;DHT22;4477;48.736;9.176;2022-08-21T01:45:33;11.00;99.90
8882;DHT22;4477;48.736;9.176;2022-08-21T01:48:00;10.90;99.90
8882;DHT22;4477;48.736;9.176;2022-08-21T01:50:28;10.80;99.90
8882;DHT22;4477;48.736;9.176;2022-08-21T01:52:55;10.80;99.90
8882;DHT22;4477;48.736;9.176;2022-08-21T01:55:23;10.70;99.90
8882;DHT22;4477;48.736;9.176;2022-08-21T01:57:50;10.60;99.90
8882;DHT22;4477;48.736;9.176;2022-08-21T02:00:20;10.60;99.90
8882;DHT22;4477;48.736;9.176;2022-08-21T02:02:49;10.50;99.90
8882;DHT22;4477;48.736;9.176;2022-08-21T02:05:16;10.60;99.90
8882;DHT22;4477;48.736;9.176;2022-08-21T02:07:46;10.70;99.90
8882;DHT22;4477;48.736;9.176;2022-08-21T02:10:16;10.70;99.90
8882;DHT22;4477;48.736;9.176;2022-08-21T02:12:44;10.70;99.90
8882;DHT22;4477;48.736;9.176;2022-08-21T02:15:12;10.60;99.90
8882;DHT22;4477;48.736;9.176;2022-08-21T02:17:41;10.60;99.90
8882;DHT22;4477;48.736;9.176;2022-08-21T02:20:09;10.60;99.90
8882;DHT22;4477;48.736;9.176;2022-08-21T02:22:36;10.60;99.90
8882;DHT22;4477;48.736;9.176;2022-08-21T02:25:04;10.60;99.90
8882;DHT22;4477;48.736;9.176;2022-08-21T02:27:38;10.50;99.90
8882;DHT22;4477;48.736;9.176;2022-08-21T02:30:09;10.40;99.90
8882;DHT22;4477;48.736;9.176;2022-08-21T02:32:37;10.40;99.90
8882;DHT22;4477;48.736;9.176;2022-08-21T02:35:04;10.30;99.90
8882;DHT22;4477;48.736;9.176;2022-08-21T02:37:31;10.30;99.90
8882;DHT22;4477;48.736;9.176;2022-08-21T02:39:59;10.10;99.90
8882;DHT22;4477;48.736;9.176;2022-08-21T02:42:26;10.10;99.90
8882;DHT22;4477;48.736;9.176;2022-08-21T02:44:53;10.00;99.90
8882;DHT22;4477;48.736;9.176;2022-08-21T02:47:21;10.10;99.90
8882;DHT22;4477;48.736;9.176;2022-08-21T02:49:48;10.30;99.90
8882;DHT22;4477;48.736;9.176;2022-08-21T02:52:15;10.40;99.90
8882;DHT22;4477;48.736;9.176;2022-08-21T02:54:42;10.30;99.90
8882;DHT22;4477;48.736;9.176;2022-08-21T02:57:08;10.30;99.90
8882;DHT22;4477;48.736;9.176;2022-08-21T02:59:35;10.20;99.90
8882;DHT22;4477;48.736;9.176;2022-08-21T03:02:03;10.10;99.90
8882;DHT22;4477;48.736;9.176;2022-08-21T03:04:31;10.10;99.90
8882;DHT22;4477;48.736;9.176;2022-08-21T03:06:58;10.00;99.90
8882;DHT22;4477;48.736;9.176;2022-08-21T03:09:25;10.10;99.90
8882;DHT22;4477;48.736;9.176;2022-08-21T03:11:53;10.10;99.90
8882;DHT22;4477;48.736;9.176;2022-08-21T03:14:20;10.10;99.90
8882;DHT22;4477;48.736;9.176;2022-08-21T03:16:47;10.10;99.90
8882;DHT22;4477;48.736;9.176;2022-08-21T03:19:15;10.00;99.90
8882;DHT22;4477;48.736;9.176;2022-08-21T03:21:43;10.00;99.90
8882;DHT22;4477;48.736;9.176;2022-08-21T03:24:10;9.90;99.90
8882;DHT22;4477;48.736;9.176;2022-08-21T03:26:39;9.80;99.90
8882;DHT22;4477;48.736;9.176;2022-08-21T03:29:06;9.80;99.90
8882;DHT22;4477;48.736;9.176;2022-08-21T03:31:33;9.70;99.90
8882;DHT22;4477;48.736;9.176;2022-08-21T03:34:00;9.70;99.90
8882;DHT22;4477;48.736;9.176;2022-08-21T03:36:27;9.70;99.90
8882;DHT22;4477;48.736;9.176;2022-08-21T03:38:56;9.70;99.90
8882;DHT22;4477;48.736;9.176;2022-08-21T03:41:23;9.70;99.90
8882;DHT22;4477;48.736;9.176;2022-08-21T03:43:50;9.90;99.90
8882;DHT22;4477;48.736;9.176;2022-08-21T03:46:17;10.10;99.90
8882;DHT22;4477;48.736;9.176;2022-08-21T03:48:44;10.10;99.90
8882;DHT22;4477;48.736;9.176;2022-08-21T03:51:11;10.00;99.90
8882;DHT22;4477;48.736;9.176;2022-08-21T03:53:38;10.00;99.90
8882;DHT22;4477;48.736;9.176;2022-08-21T03:56:07;9.90;99.90
8882;DHT22;4477;48.736;9.176;2022-08-21T03:58:35;9.80;99.90
8882;DHT22;4477;48.736;9.176;2022-08-21T04:01:03;9.70;99.90
8882;DHT22;4477;48.736;9.176;2022-08-21T04:03:33;9.50;99.90
8882;DHT22;4477;48.736;9.176;2022-08-21T04:06:00;9.50;99.90
8882;DHT22;4477;48.736;9.176;2022-08-21T04:08:27;9.50;99.90
8882;DHT22;4477;48.736;9.176;2022-08-21T04:10:56;9.50;99.90
8882;DHT22;4477;48.736;9.176;2022-08-21T04:13:25;9.50;99.90
8882;DHT22;4477;48.736;9.176;2022-08-21T04:15:53;9.60;99.90
8882;DHT22;4477;48.736;9.176;2022-08-21T04:18:21;9.70;99.90
8882;DHT22;4477;48.736;9.176;2022-08-21T04:20:50;9.60;99.90
8882;DHT22;4477;48.736;9.176;2022-08-21T04:23:18;9.40;99.90
8882;DHT22;4477;48.736;9.176;2022-08-21T04:25:46;9.30;99.90
8882;DHT22;4477;48.736;9.176;2022-08-21T04:28:12;9.30;99.90
8882;DHT22;4477;48.736;9.176;2022-08-21T04:30:41;9.40;99.90
8882;DHT22;4477;48.736;9.176;2022-08-21T04:33:08;9.50;99.90
8882;DHT22;4477;48.736;9.176;2022-08-21T04:35:35;9.50;99.90
8882;DHT22;4477;48.736;9.176;2022-08-21T04:38:01;9.40;99.90
8882;DHT22;4477;48.736;9.176;2022-08-21T04:40:28;9.50;99.90
8882;DHT22;4477;48.736;9.176;2022-08-21T04:42:57;9.50;99.90
8882;DHT22;4477;48.736;9.176;2022-08-21T04:45:27;9.70;99.90
8882;DHT22;4477;48.736;9.176;2022-08-21T04:47:57;9.80;99.90
8882;DHT22;4477;48.736;9.176;2022-08-21T04:50:29;10.00;99.90
8882;DHT22;4477;48.736;9.176;2022-08-21T04:52:58;10.10;99.90
8882;DHT22;4477;48.736;9.176;2022-08-21T04:55:26;10.10;99.90
8882;DHT22;4477;48.736;9.176;2022-08-21T04:57:54;10.00;99.90
8882;DHT22;4477;48.736;9.176;2022-08-21T05:00:22;10.00;99.90
8882;DHT22;4477;48.736;9.176;2022-08-21T05:02:51;10.20;99.90
8882;DHT22;4477;48.736;9.176;2022-08-21T05:05:23;10.30;99.90
8882;DHT22;4477;48.736;9.176;2022-08-21T05:07:50;10.40;99.90
8882;DHT22;4477;48.736;9.176;2022-08-21T05:10:17;10.50;99.90
8882;DHT22;4477;48.736;9.176;2022-08-21T05:12:45;10.70;99.90
8882;DHT22;4477;48.736;9.176;2022-08-21T05:15:12;10.70;99.90
8882;DHT22;4477;48.736;9.176;2022-08-21T05:17:40;10.70;99.90
8882;DHT22;4477;48.736;9.176;2022-08-21T05:20:08;10.80;99.90
8882;DHT22;4477;48.736;9.176;2022-08-21T05:22:36;11.00;99.90
8882;DHT22;4477;48.736;9.176;2022-08-21T05:25:04;11.20;99.90
8882;DHT22;4477;48.736;9.176;2022-08-21T05:27:32;11.40;99.90
8882;DHT22;4477;48.736;9.176;2022-08-21T05:29:59;11.60;99.90
8882;DHT22;4477;48.736;9.176;2022-08-21T05:32:26;11.80;99.90
8882;DHT22;4477;48.736;9.176;2022-08-21T05:34:53;12.10;99.90
8882;DHT22;4477;48.736;9.176;2022-08-21T05:37:20;12.30;99.90
8882;DHT22;4477;48.736;9.176;2022-08-21T05:39:48;12.50;99.90
8882;DHT22;4477;48.736;9.176;2022-08-21T05:42:15;12.80;99.90
8882;DHT22;4477;48.736;9.176;2022-08-21T05:44:42;13.10;99.90
8882;DHT22;4477;48.736;9.176;2022-08-21T05:47:10;13.40;99.90
8882;DHT22;4477;48.736;9.176;2022-08-21T05:49:37;13.70;99.90
8882;DHT22;4477;48.736;9.176;2022-08-21T05:52:04;14.10;99.90
8882;DHT22;4477;48.736;9.176;2022-08-21T05:54:31;14.50;99.90
8882;DHT22;4477;48.736;9.176;2022-08-21T05:56:59;15.00;99.90
8882;DHT22;4477;48.736;9.176;2022-08-21T05:59:26;15.50;99.90
8882;DHT22;4477;48.736;9.176;2022-08-21T06:01:54;16.00;99.90
8882;DHT22;4477;48.736;9.176;2022-08-21T06:04:21;16.40;99.90
8882;DHT22;4477;48.736;9.176;2022-08-21T06:06:48;16.70;99.90
8882;DHT22;4477;48.736;9.176;2022-08-21T06:09:14;16.90;99.90
8882;DHT22;4477;48.736;9.176;2022-08-21T06:11:41;17.10;99.90
8882;DHT22;4477;48.736;9.176;2022-08-21T06:14:10;17.30;99.90
8882;DHT22;4477;48.736;9.176;2022-08-21T06:16:39;17.50;99.90
8882;DHT22;4477;48.736;9.176;2022-08-21T06:19:06;17.50;99.90
8882;DHT22;4477;48.736;9.176;2022-08-21T06:21:33;17.70;99.90
8882;DHT22;4477;48.736;9.176;2022-08-21T06:24:00;17.80;99.90
8882;DHT22;4477;48.736;9.176;2022-08-21T06:26:28;17.90;99.90
8882;DHT22;4477;48.736;9.176;2022-08-21T06:28:56;17.90;99.90
8882;DHT22;4477;48.736;9.176;2022-08-21T06:31:27;17.90;99.90
8882;DHT22;4477;48.736;9.176;2022-08-21T06:33:53;17.90;99.90
8882;DHT22;4477;48.736;9.176;2022-08-21T06:36:20;18.00;99.90
8882;DHT22;4477;48.736;9.176;2022-08-21T06:38:47;18.20;99.90
8882;DHT22;4477;48.736;9.176;2022-08-21T06:41:14;18.20;99.90
8882;DHT22;4477;48.736;9.176;2022-08-21T06:43:41;18.30;99.90
8882;DHT22;4477;48.736;9.176;2022-08-21T06:46:08;18.50;99.90
8882;DHT22;4477;48.736;9.176;2022-08-21T06:48:36;18.60;99.90
8882;DHT22;4477;48.736;9.176;2022-08-21T06:51:03;18.50;99.90
8882;DHT22;4477;48.736;9.176;2022-08-21T06:53:30;18.40;99.90
8882;DHT22;4477;48.736;9.176;2022-08-21T06:55:58;18.60;99.90
8882;DHT22;4477;48.736;9.176;2022-08-21T06:58:24;18.70;99.90
8882;DHT22;4477;48.736;9.176;2022-08-21T07:00:51;18.60;99.90
8882;DHT22;4477;48.736;9.176;2022-08-21T07:03:21;18.80;99.90
8882;DHT22;4477;48.736;9.176;2022-08-21T07:05:49;19.00;99.90
8882;DHT22;4477;48.736;9.176;2022-08-21T07:08:17;19.30;99.90
8882;DHT22;4477;48.736;9.176;2022-08-21T07:10:44;19.60;99.90
8882;DHT22;4477;48.736;9.176;2022-08-21T07:13:11;19.70;99.90
8882;DHT22;4477;48.736;9.176;2022-08-21T07:15:38;19.80;99.90
8882;DHT22;4477;48.736;9.176;2022-08-21T07:18:06;19.80;99.90
8882;DHT22;4477;48.736;9.176;2022-08-21T07:20:33;20.00;99.90
8882;DHT22;4477;48.736;9.176;2022-08-21T07:23:06;20.10;99.90
8882;DHT22;4477;48.736;9.176;2022-08-21T07:25:33;20.30;99.90
8882;DHT22;4477;48.736;9.176;2022-08-21T07:28:00;20.50;99.90
8882;DHT22;4477;48.736;9.176;2022-08-21T07:30:27;20.60;99.90
8882;DHT22;4477;48.736;9.176;2022-08-21T07:32:54;20.70;99.90
8882;DHT22;4477;48.736;9.176;2022-08-21T07:35:22;20.80;98.50
8882;DHT22;4477;48.736;9.176;2022-08-21T07:37:49;21.20;97.20
8882;DHT22;4477;48.736;9.176;2022-08-21T07:40:18;21.50;98.20
8882;DHT22;4477;48.736;9.176;2022-08-21T07:42:47;21.90;95.90
8882;DHT22;4477;48.736;9.176;2022-08-21T07:45:17;22.00;94.40
8882;DHT22;4477;48.736;9.176;2022-08-21T07:47:44;22.00;93.00
8882;DHT22;4477;48.736;9.176;2022-08-21T07:50:12;22.30;92.90
8882;DHT22;4477;48.736;9.176;2022-08-21T07:52:39;22.60;92.80
8882;DHT22;4477;48.736;9.176;2022-08-21T07:55:07;23.10;93.40
8882;DHT22;4477;48.736;9.176;2022-08-21T07:57:37;23.40;91.90
8882;DHT22;4477;48.736;9.176;2022-08-21T08:00:05;23.60;92.30
8882;DHT22;4477;48.736;9.176;2022-08-21T08:02:33;23.90;91.40
8882;DHT22;4477;48.736;9.176;2022-08-21T08:05:00;24.20;89.00
8882;DHT22;4477;48.736;9.176;2022-08-21T08:07:27;24.50;90.50
8882;DHT22;4477;48.736;9.176;2022-08-21T08:09:54;24.60;83.00
8882;DHT22;4477;48.736;9.176;2022-08-21T08:12:21;24.70;84.50
8882;DHT22;4477;48.736;9.176;2022-08-21T08:14:50;24.70;85.60
8882;DHT22;4477;48.736;9.176;2022-08-21T08:17:16;24.90;81.60
8882;DHT22;4477;48.736;9.176;2022-08-21T08:19:47;25.00;77.40
8882;DHT22;4477;48.736;9.176;2022-08-21T08:22:15;25.00;80.70
8882;DHT22;4477;48.736;9.176;2022-08-21T08:24:44;25.20;80.60
8882;DHT22;4477;48.736;9.176;2022-08-21T08:27:11;25.20;76.90
8882;DHT22;4477;48.736;9.176;2022-08-21T08:29:38;25.30;78.40
8882;DHT22;4477;48.736;9.176;2022-08-21T08:32:07;25.50;76.90
8882;DHT22;4477;48.736;9.176;2022-08-21T08:34:34;25.80;76.40
8882;DHT22;4477;48.736;9.176;2022-08-21T08:37:03;26.00;76.10
8882;DHT22;4477;48.736;9.176;2022-08-21T08:39:31;26.20;72.40
8882;DHT22;4477;48.736;9.176;2022-08-21T08:42:04;25.90;70.30
8882;DHT22;4477;48.736;9.176;2022-08-21T08:44:32;25.80;73.30
8882;DHT22;4477;48.736;9.176;2022-08-21T08:47:01;26.20;75.70
8882;DHT22;4477;48.736;9.176;2022-08-21T08:49:34;26.70;72.50
8882;DHT22;4477;48.736;9.176;2022-08-21T08:52:07;26.90;72.60
8882;DHT22;4477;48.736;9.176;2022-08-21T08:54:42;27.20;72.00
8882;DHT22;4477;48.736;9.176;2022-08-21T08:57:15;27.50;71.30
8882;DHT22;4477;48.736;9.176;2022-08-21T08:59:45;27.50;69.70
8882;DHT22;4477;48.736;9.176;2022-08-21T09:02:14;27.90;70.60
8882;DHT22;4477;48.736;9.176;2022-08-21T09:04:44;28.00;62.50
8882;DHT22;4477;48.736;9.176;2022-08-21T09:07:19;27.80;64.60
8882;DHT22;4477;48.736;9.176;2022-08-21T09:09:59;27.60;64.50
8882;DHT22;4477;48.736;9.176;2022-08-21T09:12:36;27.70;64.40
8882;DHT22;4477;48.736;9.176;2022-08-21T09:15:12;27.90;63.10
8882;DHT22;4477;48.736;9.176;2022-08-21T09:17:52;27.90;63.00
8882;DHT22;4477;48.736;9.176;2022-08-21T09:20:29;27.80;62.50
8882;DHT22;4477;48.736;9.176;2022-08-21T09:23:09;27.50;61.20
8882;DHT22;4477;48.736;9.176;2022-08-21T09:25:42;27.80;59.10
8882;DHT22;4477;48.736;9.176;2022-08-21T09:28:12;27.40;63.10
8882;DHT22;4477;48.736;9.176;2022-08-21T09:30:41;28.00;60.40
8882;DHT22;4477;48.736;9.176;2022-08-21T09:33:09;28.40;58.80
8882;DHT22;4477;48.736;9.176;2022-08-21T09:35:48;28.10;60.00
8882;DHT22;4477;48.736;9.176;2022-08-21T09:38:25;28.10;62.30
8882;DHT22;4477;48.736;9.176;2022-08-21T09:40:57;28.50;63.60
8882;DHT22;4477;48.736;9.176;2022-08-21T09:43:26;29.20;59.90
8882;DHT22;4477;48.736;9.176;2022-08-21T09:46:03;29.80;58.50
8882;DHT22;4477;48.736;9.176;2022-08-21T09:48:42;30.00;56.60
8882;DHT22;4477;48.736;9.176;2022-08-21T09:51:13;29.70;55.50
8882;DHT22;4477;48.736;9.176;2022-08-21T09:53:45;29.50;57.80
8882;DHT22;4477;48.736;9.176;2022-08-21T09:56:25;29.60;58.00
8882;DHT22;4477;48.736;9.176;2022-08-21T09:59:15;29.70;58.10
8882;DHT22;4477;48.736;9.176;2022-08-21T10:01:45;29.60;57.80
8882;DHT22;4477;48.736;9.176;2022-08-21T10:04:13;29.80;59.60
8882;DHT22;4477;48.736;9.176;2022-08-21T10:06:42;30.40;60.30
8882;DHT22;4477;48.736;9.176;2022-08-21T10:09:10;30.90;58.40
8882;DHT22;4477;48.736;9.176;2022-08-21T10:11:38;31.40;55.00
8882;DHT22;4477;48.736;9.176;2022-08-21T10:14:12;31.50;56.60
8882;DHT22;4477;48.736;9.176;2022-08-21T10:16:46;31.30;55.40
8882;DHT22;4477;48.736;9.176;2022-08-21T10:19:23;31.40;53.60
8882;DHT22;4477;48.736;9.176;2022-08-21T10:22:00;31.00;54.40
8882;DHT22;4477;48.736;9.176;2022-08-21T10:24:32;30.70;56.50
8882;DHT22;4477;48.736;9.176;2022-08-21T10:27:10;30.60;53.60
8882;DHT22;4477;48.736;9.176;2022-08-21T10:29:45;30.40;54.60
8882;DHT22;4477;48.736;9.176;2022-08-21T10:32:25;30.40;53.90
8882;DHT22;4477;48.736;9.176;2022-08-21T10:35:02;30.20;53.40
8882;DHT22;4477;48.736;9.176;2022-08-21T10:37:44;29.30;53.90
8882;DHT22;4477;48.736;9.176;2022-08-21T10:40:22;29.00;54.50
8882;DHT22;4477;48.736;9.176;2022-08-21T10:43:02;28.30;55.10
8882;DHT22;4477;48.736;9.176;2022-08-21T10:45:41;28.40;54.40
8882;DHT22;4477;48.736;9.176;2022-08-21T10:48:16;28.70;57.10
8882;DHT22;4477;48.736;9.176;2022-08-21T10:50:50;29.20;54.80
8882;DHT22;4477;48.736;9.176;2022-08-21T10:53:36;29.10;54.50
8882;DHT22;4477;48.736;9.176;2022-08-21T10:56:14;29.60;55.60
8882;DHT22;4477;48.736;9.176;2022-08-21T10:58:49;30.00;55.00
8882;DHT22;4477;48.736;9.176;2022-08-21T11:01:22;30.00;54.40
8882;DHT22;4477;48.736;9.176;2022-08-21T11:04:07;29.90;50.20
8882;DHT22;4477;48.736;9.176;2022-08-21T11:06:37;28.70;54.80
8882;DHT22;4477;48.736;9.176;2022-08-21T11:09:11;29.20;53.70
8882;DHT22;4477;48.736;9.176;2022-08-21T11:11:47;29.20;55.60
8882;DHT22;4477;48.736;9.176;2022-08-21T11:14:22;29.90;52.80
8882;DHT22;4477;48.736;9.176;2022-08-21T11:16:56;30.50;55.30
8882;DHT22;4477;48.736;9.176;2022-08-21T11:19:28;31.00;53.40
8882;DHT22;4477;48.736;9.176;2022-08-21T11:22:02;31.30;55.10
8882;DHT22;4477;48.736;9.176;2022-08-21T11:24:40;31.10;49.70
8882;DHT22;4477;48.736;9.176;2022-08-21T11:27:17;30.40;47.70
8882;DHT22;4477;48.736;9.176;2022-08-21T11:29:48;30.00;51.80
8882;DHT22;4477;48.736;9.176;2022-08-21T11:32:36;29.10;51.70
8882;DHT22;4477;48.736;9.176;2022-08-21T11:35:14;29.00;54.50
8882;DHT22;4477;48.736;9.176;2022-08-21T11:38:02;28.50;52.30
8882;DHT22;4477;48.736;9.176;2022-08-21T11:40:46;28.00;53.10
8882;DHT22;4477;48.736;9.176;2022-08-21T11:43:22;28.40;52.60
8882;DHT22;4477;48.736;9.176;2022-08-21T11:45:54;29.30;53.90
8882;DHT22;4477;48.736;9.176;2022-08-21T11:48:34;29.90;53.70
8882;DHT22;4477;48.736;9.176;2022-08-21T11:51:07;30.40;49.00
8882;DHT22;4477;48.736;9.176;2022-08-21T11:53:38;30.30;49.10
8882;DHT22;4477;48.736;9.176;2022-08-21T11:56:11;30.40;50.40
8882;DHT22;4477;48.736;9.176;2022-08-21T11:58:43;30.90;47.80
8882;DHT22;4477;48.736;9.176;2022-08-21T12:01:17;29.90;49.80
8882;DHT22;4477;48.736;9.176;2022-08-21T12:03:54;30.20;47.80
8882;DHT22;4477;48.736;9.176;2022-08-21T12:06:29;29.70;49.50
8882;DHT22;4477;48.736;9.176;2022-08-21T12:08:59;30.10;51.00
8882;DHT22;4477;48.736;9.176;2022-08-21T12:11:27;31.10;50.90
8882;DHT22;4477;48.736;9.176;2022-08-21T12:13:57;32.00;47.90
8882;DHT22;4477;48.736;9.176;2022-08-21T12:16:33;32.60;44.50
8882;DHT22;4477;48.736;9.176;2022-08-21T12:19:06;31.80;45.10
8882;DHT22;4477;48.736;9.176;2022-08-21T12:21:45;31.20;48.40
8882;DHT22;4477;48.736;9.176;2022-08-21T12:24:18;30.90;46.30
8882;DHT22;4477;48.736;9.176;2022-08-21T12:26:53;31.20;49.90
8882;DHT22;4477;48.736;9.176;2022-08-21T12:29:26;31.20;44.60
8882;DHT22;4477;48.736;9.176;2022-08-21T12:31:57;30.90;48.60
8882;DHT22;4477;48.736;9.176;2022-08-21T12:34:30;31.70;49.70
8882;DHT22;4477;48.736;9.176;2022-08-21T12:37:02;32.50;49.10
8882;DHT22;4477;48.736;9.176;2022-08-21T12:39:32;33.30;43.70
8882;DHT22;4477;48.736;9.176;2022-08-21T12:42:06;33.90;44.00
8882;DHT22;4477;48.736;9.176;2022-08-21T12:44:38;33.80;43.00
8882;DHT22;4477;48.736;9.176;2022-08-21T12:47:14;32.90;43.60
8882;DHT22;4477;48.736;9.176;2022-08-21T12:49:50;32.90;42.50
8882;DHT22;4477;48.736;9.176;2022-08-21T12:52:22;33.40;43.80
8882;DHT22;4477;48.736;9.176;2022-08-21T12:54:49;32.90;40.30
8882;DHT22;4477;48.736;9.176;2022-08-21T12:57:22;31.40;43.20
8882;DHT22;4477;48.736;9.176;2022-08-21T12:59:55;30.80;45.90
8882;DHT22;4477;48.736;9.176;2022-08-21T13:02:25;30.00;44.40
8882;DHT22;4477;48.736;9.176;2022-08-21T13:04:53;28.40;47.20
8882;DHT22;4477;48.736;9.176;2022-08-21T13:07:25;28.00;52.10
8882;DHT22;4477;48.736;9.176;2022-08-21T13:09:57;29.60;47.80
8882;DHT22;4477;48.736;9.176;2022-08-21T13:12:27;30.80;44.30
8882;DHT22;4477;48.736;9.176;2022-08-21T13:14:56;31.60;42.00
8882;DHT22;4477;48.736;9.176;2022-08-21T13:17:26;32.20;42.20
8882;DHT22;4477;48.736;9.176;2022-08-21T13:19:58;32.30;43.10
8882;DHT22;4477;48.736;9.176;2022-08-21T13:22:26;32.50;41.70
8882;DHT22;4477;48.736;9.176;2022-08-21T13:24:53;32.60;43.20
8882;DHT22;4477;48.736;9.176;2022-08-21T13:27:24;32.50;40.70
8882;DHT22;4477;48.736;9.176;2022-08-21T13:30:04;32.60;41.60
8882;DHT22;4477;48.736;9.176;2022-08-21T13:32:34;33.00;41.60
8882;DHT22;4477;48.736;9.176;2022-08-21T13:35:13;33.90;44.90
8882;DHT22;4477;48.736;9.176;2022-08-21T13:37:40;35.10;40.70
8882;DHT22;4477;48.736;9.176;2022-08-21T13:40:11;36.00;39.90
8882;DHT22;4477;48.736;9.176;2022-08-21T13:42:41;36.40;40.10
8882;DHT22;4477;48.736;9.176;2022-08-21T13:45:14;36.40;40.10
8882;DHT22;4477;48.736;9.176;2022-08-21T13:47:42;36.40;38.10
8882;DHT22;4477;48.736;9.176;2022-08-21T13:50:13;36.50;36.10
8882;DHT22;4477;48.736;9.176;2022-08-21T13:52:53;36.10;35.10
8882;DHT22;4477;48.736;9.176;2022-08-21T13:55:20;35.60;40.10
8882;DHT22;4477;48.736;9.176;2022-08-21T13:57:47;35.50;42.70
8882;DHT22;4477;48.736;9.176;2022-08-21T14:00:29;35.70;39.00
8882;DHT22;4477;48.736;9.176;2022-08-21T14:03:02;36.10;39.60
8882;DHT22;4477;48.736;9.176;2022-08-21T14:05:31;36.60;37.40
8882;DHT22;4477;48.736;9.176;2022-08-21T14:08:03;36.50;36.20
8882;DHT22;4477;48.736;9.176;2022-08-21T14:10:31;36.60;36.00
8882;DHT22;4477;48.736;9.176;2022-08-21T14:13:03;36.80;40.20
8882;DHT22;4477;48.736;9.176;2022-08-21T14:15:33;37.40;38.50
8882;DHT22;4477;48.736;9.176;2022-08-21T14:18:08;37.60;35.50
8882;DHT22;4477;48.736;9.176;2022-08-21T14:20:36;37.90;34.80
8882;DHT22;4477;48.736;9.176;2022-08-21T14:23:03;37.50;35.10
8882;DHT22;4477;48.736;9.176;2022-08-21T14:25:37;36.70;33.50
8882;DHT22;4477;48.736;9.176;2022-08-21T14:28:13;36.00;33.00
8882;DHT22;4477;48.736;9.176;2022-08-21T14:30:46;35.70;38.50
8882;DHT22;4477;48.736;9.176;2022-08-21T14:33:28;36.00;35.20
8882;DHT22;4477;48.736;9.176;2022-08-21T14:35:56;35.40;34.50
8882;DHT22;4477;48.736;9.176;2022-08-21T14:38:27;35.50;34.50
8882;DHT22;4477;48.736;9.176;2022-08-21T14:40:57;35.50;34.00
8882;DHT22;4477;48.736;9.176;2022-08-21T14:43:26;35.80;36.50
8882;DHT22;4477;48.736;9.176;2022-08-21T14:45:54;36.50;37.50
8882;DHT22;4477;48.736;9.176;2022-08-21T14:48:21;37.00;33.40
8882;DHT22;4477;48.736;9.176;2022-08-21T14:50:49;37.50;34.30
8882;DHT22;4477;48.736;9.176;2022-08-21T14:53:16;37.20;34.70
8882;DHT22;4477;48.736;9.176;2022-08-21T14:55:43;37.20;32.20
8882;DHT22;4477;48.736;9.176;2022-08-21T14:58:28;37.00;31.20
8882;DHT22;4477;48.736;9.176;2022-08-21T15:00:56;36.90;33.70
8882;DHT22;4477;48.736;9.176;2022-08-21T15:03:24;37.20;33.70
8882;DHT22;4477;48.736;9.176;2022-08-21T15:05:52;37.50;33.50
8882;DHT22;4477;48.736;9.176;2022-08-21T15:08:18;38.00;32.40
8882;DHT22;4477;48.736;9.176;2022-08-21T15:10:46;38.10;32.40
8882;DHT22;4477;48.736;9.176;2022-08-21T15:13:13;37.40;34.10
8882;DHT22;4477;48.736;9.176;2022-08-21T15:15:42;35.40;35.40
8882;DHT22;4477;48.736;9.176;2022-08-21T15:18:11;33.10;36.90
8882;DHT22;4477;48.736;9.176;2022-08-21T15:20:39;32.00;39.80
8882;DHT22;4477;48.736;9.176;2022-08-21T15:23:08;32.90;38.20
8882;DHT22;4477;48.736;9.176;2022-08-21T15:25:36;34.50;36.80
8882;DHT22;4477;48.736;9.176;2022-08-21T15:28:03;35.70;36.50
8882;DHT22;4477;48.736;9.176;2022-08-21T15:30:31;37.00;33.50
8882;DHT22;4477;48.736;9.176;2022-08-21T15:32:58;37.60;34.50
8882;DHT22;4477;48.736;9.176;2022-08-21T15:35:26;38.70;31.30
8882;DHT22;4477;48.736;9.176;2022-08-21T15:37:53;38.00;30.00
8882;DHT22;4477;48.736;9.176;2022-08-21T15:40:20;37.50;31.60
8882;DHT22;4477;48.736;9.176;2022-08-21T15:42:47;38.00;29.90
8882;DHT22;4477;48.736;9.176;2022-08-21T15:45:14;38.10;30.80
8882;DHT22;4477;48.736;9.176;2022-08-21T15:47:43;38.30;31.30
8882;DHT22;4477;48.736;9.176;2022-08-21T15:50:12;37.00;30.90
8882;DHT22;4477;48.736;9.176;2022-08-21T15:52:40;35.30;34.70
8882;DHT22;4477;48.736;9.176;2022-08-21T15:55:08;35.40;33.40
8882;DHT22;4477;48.736;9.176;2022-08-21T15:57:36;36.00;36.20
8882;DHT22;4477;48.736;9.176;2022-08-21T16:00:11;37.00;32.60
8882;DHT22;4477;48.736;9.176;2022-08-21T16:02:43;35.80;32.60
8882;DHT22;4477;48.736;9.176;2022-08-21T16:05:12;33.70;35.20
8882;DHT22;4477;48.736;9.176;2022-08-21T16:07:44;31.80;39.70
8882;DHT22;4477;48.736;9.176;2022-08-21T16:10:12;30.20;44.40
8882;DHT22;4477;48.736;9.176;2022-08-21T16:12:43;29.30;43.30
8882;DHT22;4477;48.736;9.176;2022-08-21T16:15:13;28.80;44.80
8882;DHT22;4477;48.736;9.176;2022-08-21T16:17:42;28.50;45.10
8882;DHT22;4477;48.736;9.176;2022-08-21T16:20:15;29.80;44.60